createdAt,value
2018-03-21T00:01:58.599Z,9.27
2018-03-21T00:04:25.097Z,9.27
2018-03-21T00:06:52.061Z,9.21
2018-03-21T00:09:19.340Z,9.09
2018-03-21T00:11:46.173Z,9.20
2018-03-21T00:14:13.059Z,8.94
2018-03-21T00:16:42.209Z,9.19
2018-03-21T00:19:08.798Z,9.09
2018-03-21T00:21:35.813Z,9.22
2018-03-21T00:24:02.800Z,9.29
2018-03-21T00:26:29.428Z,9.28
2018-03-21T00:28:56.294Z,9.22
2018-03-21T00:31:22.941Z,9.22
2018-03-21T00:33:49.509Z,9.19
2018-03-21T00:36:16.793Z,9.02
2018-03-21T00:38:43.834Z,9.08
2018-03-21T00:41:11.040Z,7.82
2018-03-21T00:43:40.206Z,8.27
2018-03-21T00:46:07.743Z,8.62
2018-03-21T00:48:34.339Z,8.54
2018-03-21T00:51:01.298Z,8.54
2018-03-21T00:53:28.001Z,8.59
2018-03-21T00:55:54.885Z,8.39
2018-03-21T00:58:22.058Z,8.64
2018-03-21T01:00:48.852Z,8.80
2018-03-21T01:03:15.749Z,8.84
2018-03-21T01:05:42.842Z,8.85
2018-03-21T01:08:09.926Z,8.78
2018-03-21T01:10:36.611Z,8.90
2018-03-21T01:13:03.610Z,8.10
2018-03-21T01:15:30.454Z,8.49
2018-03-21T01:17:57.726Z,8.73
2018-03-21T01:20:24.206Z,8.76
2018-03-21T01:22:51.166Z,8.62
2018-03-21T01:25:18.601Z,8.66
2018-03-21T01:27:45.357Z,8.84
2018-03-21T01:30:12.303Z,8.86
2018-03-21T01:32:38.915Z,8.83
2018-03-21T01:35:05.600Z,8.83
2018-03-21T01:37:32.586Z,8.49
2018-03-21T01:39:59.456Z,8.68
2018-03-21T01:42:26.373Z,8.88
2018-03-21T01:44:53.426Z,8.96
2018-03-21T01:47:19.886Z,8.98
2018-03-21T01:49:47.000Z,9.06
2018-03-21T01:52:13.527Z,9.04
2018-03-21T01:54:40.504Z,8.64
2018-03-21T01:57:07.574Z,8.71
2018-03-21T01:59:34.943Z,8.79
2018-03-21T02:02:01.971Z,8.59
2018-03-21T02:04:28.832Z,8.72
2018-03-21T02:06:55.731Z,8.88
2018-03-21T02:09:22.438Z,8.64
2018-03-21T02:11:49.783Z,8.73
2018-03-21T02:14:16.581Z,8.79
2018-03-21T02:16:43.256Z,8.72
2018-03-21T02:19:09.918Z,8.60
2018-03-21T02:21:37.575Z,8.69
2018-03-21T02:24:04.923Z,8.18
2018-03-21T02:26:31.913Z,8.46
2018-03-21T02:28:58.583Z,8.10
2018-03-21T02:31:28.750Z,8.40
2018-03-21T02:33:57.147Z,7.59
2018-03-21T02:36:24.574Z,7.55
2018-03-21T02:38:51.191Z,8.04
2018-03-21T02:41:18.025Z,8.30
2018-03-21T02:43:45.008Z,8.28
2018-03-21T02:46:11.560Z,8.44
2018-03-21T02:48:38.594Z,8.25
2018-03-21T02:51:05.516Z,8.37
2018-03-21T02:53:32.222Z,7.11
2018-03-21T02:55:58.989Z,7.57
2018-03-21T02:58:25.935Z,7.83
2018-03-21T03:00:52.920Z,8.08
2018-03-21T03:03:19.709Z,8.21
2018-03-21T03:05:46.664Z,8.27
2018-03-21T03:08:13.292Z,8.13
2018-03-21T03:10:40.180Z,7.49
2018-03-21T03:13:09.176Z,7.84
2018-03-21T03:15:35.985Z,7.58
2018-03-21T03:18:02.786Z,8.04
2018-03-21T03:20:29.634Z,8.16
2018-03-21T03:22:56.518Z,7.86
2018-03-21T03:25:23.395Z,8.11
2018-03-21T03:27:50.086Z,8.21
2018-03-21T03:30:17.046Z,7.56
2018-03-21T03:32:43.802Z,7.86
2018-03-21T03:35:10.494Z,8.14
2018-03-21T03:40:11.128Z,8.03
2018-03-21T03:42:37.954Z,8.01
2018-03-21T03:45:04.538Z,8.12
2018-03-21T03:47:31.131Z,7.87
2018-03-21T03:49:57.897Z,8.22
2018-03-21T03:52:24.547Z,8.24
2018-03-21T03:54:51.403Z,8.06
2018-03-21T03:57:17.918Z,8.31
2018-03-21T03:59:45.070Z,8.03
2018-03-21T04:02:12.020Z,8.36
2018-03-21T04:04:38.569Z,8.49
2018-03-21T04:07:07.040Z,7.86
2018-03-21T04:09:33.704Z,8.10
2018-03-21T04:12:00.466Z,8.27
2018-03-21T04:14:29.150Z,8.47
2018-03-21T04:16:57.935Z,8.14
2018-03-21T04:19:24.898Z,8.46
2018-03-21T04:21:52.267Z,8.29
2018-03-21T04:24:19.349Z,8.29
2018-03-21T04:26:46.407Z,8.57
2018-03-21T04:29:14.516Z,8.62
2018-03-21T04:31:41.206Z,8.54
2018-03-21T04:34:10.519Z,8.76
2018-03-21T04:36:38.445Z,8.44
2018-03-21T04:39:07.312Z,7.93
2018-03-21T04:41:34.836Z,8.21
2018-03-21T04:44:02.022Z,7.90
2018-03-21T04:46:28.913Z,8.39
2018-03-21T04:48:57.600Z,8.56
2018-03-21T04:51:24.784Z,8.69
2018-03-21T04:53:51.638Z,8.49
2018-03-21T04:58:53.025Z,7.74
2018-03-21T05:01:19.854Z,8.17
2018-03-21T05:03:46.775Z,8.51
2018-03-21T05:06:13.861Z,8.73
2018-03-21T05:08:40.619Z,8.82
2018-03-21T05:11:08.028Z,8.92
2018-03-21T05:13:34.888Z,8.28
2018-03-21T05:16:02.155Z,8.76
2018-03-21T05:18:28.970Z,8.92
2018-03-21T05:20:55.838Z,8.45
2018-03-21T05:23:23.697Z,8.82
2018-03-21T05:25:50.679Z,8.75
2018-03-21T05:28:17.727Z,8.87
2018-03-21T05:30:44.788Z,9.06
2018-03-21T05:33:11.919Z,9.16
2018-03-21T05:35:39.293Z,8.98
2018-03-21T05:38:06.351Z,9.07
2018-03-21T05:40:33.167Z,9.22
2018-03-21T05:43:00.809Z,9.33
2018-03-21T05:45:27.647Z,9.24
2018-03-21T05:47:54.534Z,9.34
2018-03-21T05:50:22.879Z,9.34
2018-03-21T05:52:49.727Z,9.34
2018-03-21T05:55:17.691Z,9.04
2018-03-21T05:57:46.979Z,8.87
2018-03-21T06:00:14.631Z,9.18
2018-03-21T06:02:41.811Z,9.38
2018-03-21T06:05:08.757Z,9.36
2018-03-21T06:07:35.982Z,9.43
2018-03-21T06:10:02.983Z,9.46
2018-03-21T06:12:29.831Z,9.48
2018-03-21T06:14:56.887Z,9.35
2018-03-21T06:17:24.111Z,9.50
2018-03-21T06:19:50.794Z,9.24
2018-03-21T06:22:17.574Z,9.49
2018-03-21T06:24:44.278Z,9.65
2018-03-21T06:27:11.003Z,9.72
2018-03-21T06:29:38.266Z,9.58
2018-03-21T06:32:05.015Z,9.56
2018-03-21T06:34:32.823Z,9.65
2018-03-21T06:36:59.877Z,9.76
2018-03-21T06:39:26.749Z,9.84
2018-03-21T06:41:53.490Z,9.84
2018-03-21T06:44:20.145Z,9.55
2018-03-21T06:46:47.377Z,9.64
2018-03-21T06:49:14.989Z,9.38
2018-03-21T06:51:41.972Z,9.66
2018-03-21T06:54:09.263Z,9.80
2018-03-21T06:56:36.700Z,9.56
2018-03-21T06:59:03.753Z,9.63
2018-03-21T07:01:30.774Z,9.78
2018-03-21T07:03:57.744Z,9.50
2018-03-21T07:06:24.678Z,9.84
2018-03-21T07:08:51.203Z,10.04
2018-03-21T07:11:18.338Z,10.14
2018-03-21T07:13:57.295Z,10.32
2018-03-21T07:16:36.913Z,10.33
2018-03-21T07:19:03.862Z,10.37
2018-03-21T07:21:30.920Z,10.39
2018-03-21T07:23:57.934Z,10.29
2018-03-21T07:26:24.811Z,10.47
2018-03-21T07:28:51.653Z,10.45
2018-03-21T07:31:18.487Z,10.51
2018-03-21T07:33:45.567Z,9.82
2018-03-21T07:36:12.457Z,10.20
2018-03-21T07:38:39.628Z,10.19
2018-03-21T07:41:06.890Z,10.27
2018-03-21T07:43:34.206Z,10.53
2018-03-21T07:46:01.422Z,10.26
2018-03-21T07:48:28.349Z,10.53
2018-03-21T07:50:55.204Z,10.64
2018-03-21T07:53:21.827Z,10.80
2018-03-21T07:55:48.736Z,10.73
2018-03-21T07:58:15.841Z,10.97
2018-03-21T08:00:43.052Z,10.92
2018-03-21T08:03:09.904Z,11.07
2018-03-21T08:05:36.606Z,11.18
2018-03-21T08:08:03.798Z,11.02
2018-03-21T08:10:31.856Z,11.10
2018-03-21T08:12:58.941Z,10.86
2018-03-21T08:15:25.692Z,11.22
2018-03-21T08:17:53.217Z,11.20
2018-03-21T08:20:20.125Z,11.03
2018-03-21T08:22:46.872Z,10.76
2018-03-21T08:25:14.107Z,11.17
2018-03-21T08:27:41.187Z,11.35
2018-03-21T08:30:09.154Z,11.25
2018-03-21T08:32:36.076Z,11.19
2018-03-21T08:35:03.397Z,11.21
2018-03-21T08:37:30.794Z,10.73
2018-03-21T08:39:57.649Z,11.05
2018-03-21T08:42:24.485Z,11.05
2018-03-21T08:44:51.584Z,11.17
2018-03-21T08:47:18.435Z,11.15
2018-03-21T08:49:45.562Z,11.04
2018-03-21T08:52:12.314Z,11.05
2018-03-21T08:54:39.377Z,11.17
2018-03-21T08:57:06.190Z,11.10
2018-03-21T08:59:32.868Z,11.13
2018-03-21T09:01:59.572Z,11.08
2018-03-21T09:04:26.701Z,11.37
2018-03-21T09:06:53.945Z,11.41
2018-03-21T09:09:21.166Z,11.24
2018-03-21T09:11:48.421Z,11.41
2018-03-21T09:14:15.528Z,11.46
2018-03-21T09:16:42.620Z,11.65
2018-03-21T09:19:09.942Z,11.05
2018-03-21T09:21:37.057Z,11.46
2018-03-21T09:24:03.750Z,11.37
2018-03-21T09:26:30.809Z,11.28
2018-03-21T09:28:58.235Z,11.32
2018-03-21T09:31:25.770Z,11.49
2018-03-21T09:33:52.634Z,11.54
2018-03-21T09:36:19.855Z,10.94
2018-03-21T09:38:47.198Z,10.78
2018-03-21T09:41:13.987Z,10.81
2018-03-21T09:43:40.946Z,10.75
2018-03-21T09:46:07.651Z,11.08
2018-03-21T09:48:34.977Z,11.23
2018-03-21T09:51:01.813Z,10.62
2018-03-21T09:53:28.688Z,10.34
2018-03-21T09:55:56.368Z,10.76
2018-03-21T09:58:23.477Z,10.90
2018-03-21T10:00:50.416Z,10.93
2018-03-21T10:03:17.537Z,11.29
2018-03-21T10:05:44.383Z,11.42
2018-03-21T10:08:11.050Z,11.40
2018-03-21T10:10:37.894Z,11.69
2018-03-21T10:13:04.723Z,11.85
2018-03-21T10:15:31.570Z,11.38
2018-03-21T10:17:58.785Z,11.43
2018-03-21T10:20:25.934Z,11.54
2018-03-21T10:22:52.794Z,11.29
2018-03-21T10:25:19.537Z,11.40
2018-03-21T10:27:46.721Z,11.66
2018-03-21T10:30:13.524Z,11.27
2018-03-21T10:32:40.790Z,11.61
2018-03-21T10:35:09.289Z,11.58
2018-03-21T10:37:36.175Z,11.71
2018-03-21T10:40:03.318Z,11.68
2018-03-21T10:42:30.535Z,11.42
2018-03-21T10:44:57.469Z,11.45
2018-03-21T10:47:24.414Z,11.46
2018-03-21T10:49:51.421Z,11.67
2018-03-21T10:52:18.484Z,11.66
2018-03-21T10:54:45.922Z,11.23
2018-03-21T10:57:12.838Z,11.11
2018-03-21T10:59:39.662Z,11.51
2018-03-21T11:02:12.833Z,11.62
2018-03-21T11:04:39.811Z,11.60
2018-03-21T11:07:07.132Z,11.55
2018-03-21T11:09:34.187Z,11.68
2018-03-21T11:12:01.148Z,11.79
2018-03-21T11:14:28.179Z,11.46
2018-03-21T11:16:55.326Z,11.69
2018-03-21T11:19:22.378Z,11.59
2018-03-21T11:21:49.406Z,11.54
2018-03-21T11:24:16.393Z,11.29
2018-03-21T11:26:43.626Z,10.80
2018-03-21T11:29:11.747Z,11.08
2018-03-21T11:31:39.079Z,11.30
2018-03-21T11:34:07.118Z,11.57
2018-03-21T11:36:34.054Z,10.97
2018-03-21T11:39:01.309Z,11.47
2018-03-21T11:41:28.853Z,11.68
2018-03-21T11:43:55.992Z,11.59
2018-03-21T11:46:23.039Z,11.46
2018-03-21T11:48:50.180Z,11.66
2018-03-21T11:51:17.150Z,11.85
2018-03-21T11:53:44.812Z,11.83
2018-03-21T11:56:11.627Z,11.39
2018-03-21T11:58:38.561Z,11.47
2018-03-21T12:01:05.904Z,11.82
2018-03-21T12:03:32.717Z,11.97
2018-03-21T12:05:59.571Z,12.09
2018-03-21T12:08:33.188Z,11.98
2018-03-21T12:11:00.637Z,12.08
2018-03-21T12:13:27.867Z,11.51
2018-03-21T12:15:54.932Z,10.73
2018-03-21T12:18:23.051Z,10.72
2018-03-21T12:20:49.570Z,9.42
2018-03-21T12:23:16.501Z,9.02
2018-03-21T12:25:43.227Z,8.75
2018-03-21T12:28:10.149Z,8.21
2018-03-21T12:30:36.974Z,8.28
2018-03-21T12:33:04.718Z,8.70
2018-03-21T12:35:31.592Z,8.22
2018-03-21T12:37:58.341Z,7.42
2018-03-21T12:40:25.273Z,7.71
2018-03-21T12:42:51.933Z,6.94
2018-03-21T12:45:18.934Z,8.00
2018-03-21T12:47:45.879Z,6.30
2018-03-21T12:50:12.705Z,6.78
2018-03-21T12:52:39.454Z,6.00
2018-03-21T12:55:06.300Z,5.43
2018-03-21T12:57:33.614Z,5.26
2018-03-21T13:00:00.439Z,4.84
2018-03-21T13:02:27.162Z,5.40
2018-03-21T13:04:54.545Z,4.99
2018-03-21T13:07:21.265Z,5.24
2018-03-21T13:09:49.015Z,4.90
2018-03-21T13:12:15.626Z,4.88
2018-03-21T13:14:42.610Z,5.15
2018-03-21T13:17:09.686Z,5.39
2018-03-21T13:19:36.611Z,4.67
2018-03-21T13:22:03.200Z,4.93
2018-03-21T13:24:29.957Z,5.06
2018-03-21T13:26:57.098Z,4.45
2018-03-21T13:29:23.797Z,4.63
2018-03-21T13:31:50.351Z,4.75
2018-03-21T13:34:17.321Z,4.41
2018-03-21T13:36:44.066Z,4.25
2018-03-21T13:39:11.059Z,4.69
2018-03-21T13:41:37.702Z,4.46
2018-03-21T13:44:04.578Z,4.25
2018-03-21T13:46:31.498Z,4.68
2018-03-21T13:48:59.739Z,3.72
2018-03-21T13:51:27.035Z,4.48
2018-03-21T13:53:53.796Z,4.32
2018-03-21T13:56:20.655Z,3.93
2018-03-21T13:58:47.595Z,3.69
2018-03-21T14:01:14.344Z,3.88
2018-03-21T14:03:40.946Z,4.35
2018-03-21T14:06:08.451Z,4.02
2018-03-21T14:08:35.301Z,4.14
2018-03-21T14:11:02.692Z,4.86
2018-03-21T14:13:29.308Z,4.13
2018-03-21T14:15:55.947Z,4.38
2018-03-21T14:18:22.756Z,4.66
2018-03-21T14:20:50.113Z,4.53
2018-03-21T14:23:17.361Z,5.11
2018-03-21T14:25:44.202Z,5.77
2018-03-21T14:28:10.926Z,5.49
2018-03-21T14:30:37.659Z,5.95
2018-03-21T14:33:04.572Z,4.98
2018-03-21T14:35:31.466Z,4.62
2018-03-21T14:37:58.474Z,4.91
2018-03-21T14:40:25.410Z,4.65
2018-03-21T14:42:53.000Z,4.84
2018-03-21T14:45:19.960Z,5.19
2018-03-21T14:47:46.598Z,5.21
2018-03-21T14:50:13.525Z,3.86
2018-03-21T14:52:40.718Z,3.95
2018-03-21T14:55:08.147Z,4.74
2018-03-21T14:57:35.011Z,3.65
2018-03-21T15:00:02.149Z,4.59
2018-03-21T15:02:28.979Z,3.93
2018-03-21T15:04:55.755Z,4.39
2018-03-21T15:07:22.435Z,4.63
2018-03-21T15:09:49.206Z,5.08
2018-03-21T15:12:15.727Z,4.23
2018-03-21T15:14:42.386Z,4.50
2018-03-21T15:17:09.267Z,3.70
2018-03-21T15:19:36.483Z,3.98
2018-03-21T15:22:03.407Z,4.76
2018-03-21T15:24:29.925Z,4.92
2018-03-21T15:26:58.431Z,5.47
2018-03-21T15:29:25.516Z,4.97
2018-03-21T15:31:52.419Z,5.57
2018-03-21T15:34:19.335Z,4.36
2018-03-21T15:36:46.467Z,4.21
2018-03-21T15:39:14.027Z,4.22
2018-03-21T15:41:40.912Z,5.01
2018-03-21T15:44:08.647Z,4.42
2018-03-21T15:46:35.902Z,4.15
2018-03-21T15:49:02.735Z,4.25
2018-03-21T15:51:29.805Z,4.09
2018-03-21T15:53:56.678Z,4.11
2018-03-21T15:56:23.641Z,4.13
2018-03-21T15:58:50.498Z,4.51
2018-03-21T16:01:17.845Z,4.61
2018-03-21T16:03:44.456Z,4.92
2018-03-21T16:06:12.223Z,3.99
2018-03-21T16:08:39.052Z,4.92
2018-03-21T16:11:05.882Z,4.38
2018-03-21T16:13:33.240Z,4.86
2018-03-21T16:16:01.319Z,4.83
2018-03-21T16:18:28.714Z,3.23
2018-03-21T16:20:55.443Z,4.14
2018-03-21T16:23:22.155Z,4.62
2018-03-21T16:25:49.190Z,4.79
2018-03-21T16:28:16.341Z,4.65
2018-03-21T16:30:43.435Z,4.42
2018-03-21T16:33:10.435Z,4.92
2018-03-21T16:35:37.038Z,4.15
2018-03-21T16:38:04.201Z,4.14
2018-03-21T16:40:31.281Z,4.66
2018-03-21T16:42:57.984Z,4.86
2018-03-21T16:45:24.973Z,3.05
2018-03-21T16:47:54.203Z,3.73
2018-03-21T16:50:22.360Z,4.22
2018-03-21T16:52:49.483Z,3.33
2018-03-21T16:55:17.965Z,4.27
2018-03-21T16:57:50.700Z,3.61
2018-03-21T17:00:18.107Z,3.68
2018-03-21T17:02:45.394Z,3.39
2018-03-21T17:05:13.550Z,3.82
2018-03-21T17:07:40.320Z,3.30
2018-03-21T17:10:07.553Z,2.89
2018-03-21T17:12:35.921Z,3.38
2018-03-21T17:15:03.479Z,3.57
2018-03-21T17:17:30.021Z,3.94
2018-03-21T17:19:57.226Z,2.92
2018-03-21T17:22:23.666Z,3.12
2018-03-21T17:24:50.423Z,3.59
2018-03-21T17:27:17.336Z,2.99
2018-03-21T17:29:44.924Z,2.47
2018-03-21T17:32:11.470Z,2.81
2018-03-21T17:34:38.638Z,3.47
2018-03-21T17:37:05.983Z,2.36
2018-03-21T17:39:32.972Z,2.83
2018-03-21T17:41:59.574Z,2.69
2018-03-21T17:44:26.245Z,2.48
2018-03-21T17:46:52.726Z,3.22
2018-03-21T17:49:20.074Z,2.94
2018-03-21T17:51:47.612Z,3.36
2018-03-21T17:54:14.984Z,2.54
2018-03-21T17:56:42.186Z,3.20
2018-03-21T17:59:09.664Z,2.88
2018-03-21T18:01:36.524Z,3.14
2018-03-21T18:04:03.138Z,2.46
2018-03-21T18:06:30.125Z,3.38
2018-03-21T18:08:57.373Z,3.86
2018-03-21T18:11:25.810Z,3.02
2018-03-21T18:13:52.870Z,3.60
2018-03-21T18:16:19.763Z,2.98
2018-03-21T18:18:46.593Z,3.00
2018-03-21T18:21:13.695Z,3.24
2018-03-21T18:23:41.033Z,2.23
2018-03-21T18:26:08.501Z,2.77
2018-03-21T18:28:35.245Z,2.16
2018-03-21T18:31:02.692Z,2.42
2018-03-21T18:33:29.541Z,3.14
2018-03-21T18:35:56.487Z,3.11
2018-03-21T18:38:23.593Z,3.19
2018-03-21T18:40:51.889Z,2.46
2018-03-21T18:43:20.608Z,3.09
2018-03-21T18:45:48.564Z,2.37
2018-03-21T18:48:15.960Z,2.56
2018-03-21T18:50:44.211Z,3.26
2018-03-21T18:53:11.052Z,2.94
2018-03-21T18:55:38.222Z,3.47
2018-03-21T18:58:04.833Z,3.05
2018-03-21T19:00:31.621Z,2.03
2018-03-21T19:02:59.713Z,2.22
2018-03-21T19:05:26.310Z,2.51
2018-03-21T19:07:53.328Z,3.37
2018-03-21T19:10:20.493Z,2.72
2018-03-21T19:12:47.925Z,2.40
2018-03-21T19:15:16.120Z,2.78
2018-03-21T19:17:45.830Z,2.13
2018-03-21T19:20:20.715Z,3.20
2018-03-21T19:22:48.325Z,3.31
2018-03-21T19:25:16.425Z,2.47
2018-03-21T19:27:43.874Z,2.40
2018-03-21T19:30:11.490Z,2.57
2018-03-21T19:32:38.593Z,2.58
2018-03-21T19:35:05.713Z,2.05
2018-03-21T19:37:32.510Z,2.47
2018-03-21T19:40:00.240Z,1.96
2018-03-21T19:42:27.054Z,2.59
2018-03-21T19:44:54.996Z,2.89
2018-03-21T19:47:22.294Z,3.12
2018-03-21T19:49:49.768Z,3.13
2018-03-21T19:52:17.644Z,2.54
2018-03-21T19:54:45.282Z,3.20
2018-03-21T19:57:12.836Z,3.60
2018-03-21T19:59:39.730Z,3.03
2018-03-21T20:02:07.053Z,3.51
2018-03-21T20:04:34.225Z,2.79
2018-03-21T20:07:01.362Z,3.11
2018-03-21T20:09:27.947Z,3.42
2018-03-21T20:11:55.185Z,2.34
2018-03-21T20:14:22.862Z,2.34
2018-03-21T20:16:50.254Z,2.51
2018-03-21T20:19:18.659Z,2.36
2018-03-21T20:21:46.003Z,2.32
2018-03-21T20:24:13.122Z,2.39
2018-03-21T20:26:39.991Z,2.12
2018-03-21T20:29:07.395Z,1.51
2018-03-21T20:31:34.590Z,1.62
2018-03-21T20:34:01.996Z,1.34
2018-03-21T20:36:31.003Z,1.64
2018-03-21T20:38:58.495Z,1.48
2018-03-21T20:41:25.694Z,1.25
2018-03-21T20:43:52.871Z,1.51
2018-03-21T20:46:20.087Z,1.42
2018-03-21T20:48:47.159Z,2.06
2018-03-21T20:51:13.997Z,1.92
2018-03-21T20:53:40.886Z,0.90
2018-03-21T20:56:08.217Z,1.75
2018-03-21T20:58:35.258Z,1.29
2018-03-21T21:01:02.207Z,1.55
2018-03-21T21:03:29.156Z,1.36
2018-03-21T21:05:55.818Z,0.91
2018-03-21T21:08:23.904Z,1.19
2018-03-21T21:10:50.547Z,1.29
2018-03-21T21:13:17.762Z,1.64
2018-03-21T21:15:44.546Z,2.20
2018-03-21T21:18:12.087Z,1.58
2018-03-21T21:20:38.974Z,1.60
2018-03-21T21:23:05.854Z,2.50
2018-03-21T21:25:32.590Z,1.77
2018-03-21T21:27:59.862Z,2.68
2018-03-21T21:30:26.612Z,1.37
2018-03-21T21:32:54.457Z,1.80
2018-03-21T21:35:21.106Z,1.29
2018-03-21T21:37:49.053Z,1.54
2018-03-21T21:40:16.081Z,1.45
2018-03-21T21:42:42.896Z,1.00
2018-03-21T21:45:09.930Z,1.86
2018-03-21T21:47:36.729Z,1.16
2018-03-21T21:50:03.382Z,1.05
2018-03-21T21:52:30.603Z,1.84
2018-03-21T21:54:57.521Z,1.59
2018-03-21T21:57:24.538Z,1.74
2018-03-21T21:59:51.328Z,1.00
2018-03-21T22:02:18.428Z,1.52
2018-03-21T22:04:45.756Z,1.28
2018-03-21T22:07:12.765Z,1.54
2018-03-21T22:09:40.078Z,1.65
2018-03-21T22:12:07.057Z,1.56
2018-03-21T22:14:34.031Z,1.65
2018-03-21T22:17:02.622Z,1.75
2018-03-21T22:19:29.484Z,1.04
2018-03-21T22:21:56.227Z,1.48
2018-03-21T22:24:23.342Z,1.59
2018-03-21T22:26:50.278Z,2.05
2018-03-21T22:29:17.111Z,1.25
2018-03-21T22:31:44.007Z,1.48
2018-03-21T22:34:18.737Z,0.93
2018-03-21T22:36:45.458Z,1.52
2018-03-21T22:39:12.885Z,1.21
2018-03-21T22:41:40.318Z,1.10
2018-03-21T22:44:07.774Z,0.87
2018-03-21T22:46:34.574Z,1.92
2018-03-21T22:49:01.918Z,1.88
2018-03-21T22:51:29.728Z,1.68
2018-03-21T22:53:56.693Z,1.38
2018-03-21T22:56:23.635Z,0.98
2018-03-21T22:58:51.500Z,1.73
2018-03-21T23:01:18.451Z,1.76
2018-03-21T23:03:46.069Z,1.53
2018-03-21T23:06:13.379Z,1.46
2018-03-21T23:08:40.939Z,1.61
2018-03-21T23:11:08.335Z,1.80
2018-03-21T23:13:36.277Z,1.97
2018-03-21T23:16:03.699Z,2.41
2018-03-21T23:18:31.106Z,1.75
2018-03-21T23:20:57.703Z,2.03
2018-03-21T23:23:24.511Z,1.72
2018-03-21T23:25:51.939Z,1.85
2018-03-21T23:28:19.865Z,1.80
2018-03-21T23:30:48.772Z,1.62
2018-03-21T23:33:16.301Z,2.33
2018-03-21T23:35:43.353Z,1.42
2018-03-21T23:38:10.121Z,0.97
2018-03-21T23:40:38.151Z,1.90
2018-03-21T23:43:04.766Z,1.39
2018-03-21T23:45:31.526Z,0.97
2018-03-21T23:48:05.970Z,1.78
2018-03-21T23:50:33.050Z,2.34
2018-03-21T23:53:00.191Z,2.48
2018-03-21T23:55:26.865Z,1.48
2018-03-21T23:57:53.750Z,1.60
